Time;durP1;ratioP1;P1;durP2;ratioP2;P2;SDS_P1;SDS_P2;PMS_P1;PMS_P2;Temp;Humidity;BMP_temperature;BMP_pressure;BME280_temperature;BME280_humidity;BME280_pressure;Samples;Min_cycle;Max_cycle;Signal;HPM_P1;HPM_P2
2022/06/29 00:00:11;;;;;;;3.07;2.60;;;;;;;;;;5041769;28;20230;-36
2022/06/29 00:02:39;;;;;;;3.07;2.87;;;;;;;;;;5046618;28;20214;-36
2022/06/29 00:05:07;;;;;;;2.80;2.60;;;;;;;;;;5042344;28;20300;-37
2022/06/29 00:07:34;;;;;;;2.50;2.40;;;;;;;;;;5049763;28;20220;-36
2022/06/29 00:10:01;;;;;;;2.90;2.70;;;;;;;;;;5050013;28;20209;-33
2022/06/29 00:12:28;;;;;;;2.60;2.40;;;;;;;;;;5045788;28;20216;-35
2022/06/29 00:14:56;;;;;;;5.37;2.60;;;;;;;;;;5049057;28;20207;-39
2022/06/29 00:17:24;;;;;;;2.87;2.67;;;;;;;;;;5047636;28;20213;-34
2022/06/29 00:19:52;;;;;;;3.10;2.90;;;;;;;;;;5040268;28;20227;-35
2022/06/29 00:22:19;;;;;;;7.20;3.03;;;;;;;;;;5049016;28;20282;-38
2022/06/29 00:24:46;;;;;;;3.50;2.93;;;;;;;;;;5049851;28;20211;-38
2022/06/29 00:27:13;;;;;;;3.57;2.97;;;;;;;;;;5046324;28;20230;-36
2022/06/29 00:29:41;;;;;;;3.63;2.80;;;;;;;;;;5044797;28;20563;-33
2022/06/29 00:32:08;;;;;;;2.70;2.50;;;;;;;;;;5049537;28;20207;-36
2022/06/29 00:34:37;;;;;;;2.87;2.67;;;;;;;;;;5044037;28;20219;-36
2022/06/29 00:37:04;;;;;;;2.70;2.50;;;;;;;;;;5049330;28;20505;-34
2022/06/29 00:39:32;;;;;;;2.93;2.67;;;;;;;;;;5049778;28;20527;-36
2022/06/29 00:41:59;;;;;;;2.97;2.50;;;;;;;;;;5038234;28;20196;-36
2022/06/29 00:44:27;;;;;;;5.67;2.97;;;;;;;;;;5047932;28;20439;-36
2022/06/29 00:46:55;;;;;;;3.10;2.90;;;;;;;;;;5049335;28;20614;-33
2022/06/29 00:49:22;;;;;;;4.23;3.00;;;;;;;;;;5044867;28;20206;-35
2022/06/29 00:51:52;;;;;;;5.00;3.10;;;;;;;;;;5049216;28;20214;-32
2022/06/29 00:54:20;;;;;;;3.40;2.67;;;;;;;;;;5049552;28;20207;-37
2022/06/29 00:56:48;;;;;;;6.53;2.67;;;;;;;;;;5045780;28;20224;-36
2022/06/29 00:59:17;;;;;;;2.90;2.57;;;;;;;;;;5041629;28;20237;-35
2022/06/29 01:01:44;;;;;;;4.87;3.00;;;;;;;;;;5038046;28;20219;-36
2022/06/29 01:04:12;;;;;;;2.90;2.60;;;;;;;;;;5044024;28;20653;-34
2022/06/29 01:06:39;;;;;;;2.70;2.50;;;;;;;;;;5047332;28;20317;-35
2022/06/29 01:09:08;;;;;;;2.97;2.63;;;;;;;;;;5047693;28;20217;-36
2022/06/29 01:11:35;;;;;;;2.90;2.57;;;;;;;;;;5038351;28;20568;-31
2022/06/29 01:14:03;;;;;;;4.33;2.63;;;;;;;;;;5047641;28;20260;-37
2022/06/29 01:16:30;;;;;;;3.53;2.77;;;;;;;;;;5049446;28;20219;-35
2022/06/29 01:18:57;;;;;;;3.70;2.67;;;;;;;;;;5044692;28;20211;-34
2022/06/29 01:21:25;;;;;;;3.07;2.87;;;;;;;;;;5048450;28;20219;-36
2022/06/29 01:23:54;;;;;;;3.17;2.87;;;;;;;;;;5051574;28;20218;-36
2022/06/29 01:26:21;;;;;;;2.83;2.63;;;;;;;;;;5053324;28;20230;-35
2022/06/29 01:28:48;;;;;;;3.07;2.87;;;;;;;;;;5048224;28;20208;-36
2022/06/29 01:31:16;;;;;;;2.33;2.23;;;;;;;;;;5049356;28;20199;-36
2022/06/29 01:33:43;;;;;;;3.67;2.67;;;;;;;;;;5046082;28;20225;-34
2022/06/29 01:36:10;;;;;;;2.80;2.53;;;;;;;;;;5052225;28;20223;-35
2022/06/29 01:38:38;;;;;;;2.83;2.63;;;;;;;;;;5053168;28;20210;-35
2022/06/29 01:41:06;;;;;;;3.00;2.80;;;;;;;;;;5053124;28;20234;-34
2022/06/29 01:43:33;;;;;;;3.30;3.00;;;;;;;;;;5045919;28;20210;-36
2022/06/29 01:46:00;;;;;;;2.77;2.60;;;;;;;;;;5052885;28;20215;-37
2022/06/29 01:48:27;;;;;;;2.97;2.77;;;;;;;;;;5042456;28;20222;-34
2022/06/29 01:50:55;;;;;;;3.10;2.90;;;;;;;;;;5052066;28;20203;-35
2022/06/29 01:53:22;;;;;;;3.67;3.27;;;;;;;;;;5052344;28;20231;-35
2022/06/29 01:55:49;;;;;;;3.50;3.20;;;;;;;;;;5047371;28;20507;-34
2022/06/29 01:58:18;;;;;;;4.33;3.30;;;;;;;;;;5040487;28;20208;-34
2022/06/29 02:00:46;;;;;;;4.30;2.97;;;;;;;;;;5298535;22;20217;-31
2022/06/29 02:03:13;;;;;;;3.33;3.03;;;;;;;;;;5040024;28;20307;-27
2022/06/29 02:05:40;;;;;;;3.97;2.90;;;;;;;;;;5050127;28;20213;-31
2022/06/29 02:08:07;;;;;;;4.47;3.47;;;;;;;;;;5033046;28;20209;-32
2022/06/29 02:10:35;;;;;;;3.40;3.10;;;;;;;;;;5030072;28;20205;-34
2022/06/29 02:13:02;;;;;;;3.53;3.03;;;;;;;;;;5027640;28;20219;-29
2022/06/29 02:15:30;;;;;;;2.70;2.50;;;;;;;;;;5028752;28;20264;-31
2022/06/29 02:17:57;;;;;;;2.97;2.70;;;;;;;;;;5031649;28;20226;-30
2022/06/29 02:20:25;;;;;;;5.80;2.90;;;;;;;;;;5030965;28;20222;-31
2022/06/29 02:22:52;;;;;;;3.23;3.03;;;;;;;;;;5033948;28;20208;-31
2022/06/29 02:25:19;;;;;;;4.50;3.00;;;;;;;;;;5032476;28;20235;-29
2022/06/29 02:27:47;;;;;;;3.10;2.90;;;;;;;;;;5021788;28;20224;-32
2022/06/29 02:30:14;;;;;;;4.83;3.17;;;;;;;;;;5023030;28;20737;-30
2022/06/29 02:35:28;;;;;;;3.20;2.90;;;;;;;;;;5026755;28;20257;-29
2022/06/29 02:37:55;;;;;;;2.63;2.47;;;;;;;;;;5031629;28;20222;-31
2022/06/29 02:40:23;;;;;;;4.00;2.83;;;;;;;;;;5032227;28;20230;-30
2022/06/29 02:42:51;;;;;;;2.90;2.70;;;;;;;;;;5024286;28;20304;-29
2022/06/29 02:45:18;;;;;;;2.90;2.70;;;;;;;;;;5020843;28;20212;-33
2022/06/29 02:47:46;;;;;;;3.40;3.03;;;;;;;;;;5028905;28;20230;-30
2022/06/29 02:50:13;;;;;;;3.37;2.97;;;;;;;;;;5030499;28;20227;-32
2022/06/29 02:52:40;;;;;;;4.40;3.20;;;;;;;;;;5031441;28;20204;-31
2022/06/29 02:55:08;;;;;;;2.97;2.73;;;;;;;;;;5031937;28;20203;-29
2022/06/29 02:57:35;;;;;;;3.10;2.90;;;;;;;;;;5022264;28;20230;-31
2022/06/29 03:00:02;;;;;;;3.33;2.87;;;;;;;;;;5025718;28;20227;-29
2022/06/29 03:02:29;;;;;;;3.07;2.87;;;;;;;;;;5029219;28;20278;-30
2022/06/29 03:04:59;;;;;;;3.20;2.97;;;;;;;;;;5024699;28;20203;-33
2022/06/29 03:07:27;;;;;;;3.53;3.07;;;;;;;;;;5031971;28;20229;-29
2022/06/29 03:09:54;;;;;;;4.27;2.90;;;;;;;;;;5031609;28;20208;-29
2022/06/29 03:12:21;;;;;;;3.10;2.70;;;;;;;;;;5021640;28;20204;-28
2022/06/29 03:14:49;;;;;;;2.80;2.60;;;;;;;;;;5025186;28;20341;-29
2022/06/29 03:17:16;;;;;;;3.10;2.90;;;;;;;;;;5031790;28;20239;-31
2022/06/29 03:19:43;;;;;;;3.37;3.07;;;;;;;;;;5025170;28;20207;-30
2022/06/29 03:22:11;;;;;;;3.57;3.00;;;;;;;;;;5031843;28;20206;-29
2022/06/29 03:24:39;;;;;;;4.37;2.87;;;;;;;;;;5031406;28;20215;-32
2022/06/29 03:27:07;;;;;;;4.80;3.00;;;;;;;;;;5024164;28;20227;-31
2022/06/29 03:29:34;;;;;;;3.40;3.10;;;;;;;;;;5024030;28;20550;-31
2022/06/29 03:32:01;;;;;;;4.63;3.37;;;;;;;;;;5030690;28;20676;-29
2022/06/29 03:34:28;;;;;;;3.20;2.90;;;;;;;;;;5021936;28;20208;-31
2022/06/29 03:36:55;;;;;;;4.23;3.00;;;;;;;;;;5032327;28;20282;-30
2022/06/29 03:39:23;;;;;;;4.93;3.00;;;;;;;;;;5033492;28;20223;-27
2022/06/29 03:41:50;;;;;;;3.63;3.30;;;;;;;;;;5028921;28;20242;-30
2022/06/29 03:44:18;;;;;;;3.47;3.17;;;;;;;;;;5027488;28;20207;-29
2022/06/29 03:46:45;;;;;;;3.83;3.47;;;;;;;;;;5031971;28;20219;-30
2022/06/29 03:49:12;;;;;;;3.60;2.87;;;;;;;;;;5026229;28;20210;-32
2022/06/29 03:51:39;;;;;;;3.63;3.13;;;;;;;;;;5031796;28;20219;-33
2022/06/29 03:54:06;;;;;;;5.30;3.30;;;;;;;;;;5033233;28;20292;-29
2022/06/29 03:56:34;;;;;;;3.37;3.17;;;;;;;;;;5033723;28;20237;-28
2022/06/29 03:59:02;;;;;;;2.87;2.67;;;;;;;;;;5022378;28;20200;-27
2022/06/29 04:01:29;;;;;;;3.30;3.10;;;;;;;;;;5030314;28;20236;-30
2022/06/29 04:03:56;;;;;;;2.90;2.57;;;;;;;;;;5027171;28;20211;-31
2022/06/29 04:06:23;;;;;;;6.50;3.20;;;;;;;;;;5031650;28;20316;-30
2022/06/29 04:08:50;;;;;;;3.30;3.00;;;;;;;;;;5032833;28;20207;-33
2022/06/29 04:14:03;;;;;;;3.03;2.80;;;;;;;;;;5030252;28;20338;-31
2022/06/29 04:16:31;;;;;;;4.10;3.43;;;;;;;;;;5032479;28;20224;-27
2022/06/29 04:18:58;;;;;;;3.10;2.90;;;;;;;;;;5025231;28;20209;-30
2022/06/29 04:21:26;;;;;;;3.37;3.17;;;;;;;;;;5031254;28;20235;-28
2022/06/29 04:23:53;;;;;;;3.57;3.27;;;;;;;;;;5032879;28;20261;-31
2022/06/29 04:26:20;;;;;;;3.37;3.00;;;;;;;;;;5030864;28;20230;-27
2022/06/29 04:28:48;;;;;;;5.57;3.40;;;;;;;;;;5028430;28;20209;-29
2022/06/29 04:31:16;;;;;;;5.13;3.10;;;;;;;;;;5033826;28;20195;-30
2022/06/29 04:33:43;;;;;;;4.07;2.83;;;;;;;;;;5027002;28;20212;-28
2022/06/29 04:36:12;;;;;;;4.30;3.43;;;;;;;;;;5033009;28;20227;-26
2022/06/29 04:38:39;;;;;;;4.10;3.27;;;;;;;;;;5032861;28;20205;-31
2022/06/29 04:41:06;;;;;;;3.20;3.00;;;;;;;;;;5032057;28;20223;-29
2022/06/29 04:43:36;;;;;;;3.37;3.17;;;;;;;;;;5024214;28;20203;-29
2022/06/29 04:46:22;;;;;;;4.10;3.10;;;;;;;;;;5032668;28;20219;-31
2022/06/29 04:48:52;;;;;;;4.10;3.70;;;;;;;;;;5026324;28;20786;-29
2022/06/29 04:51:19;;;;;;;3.13;2.90;;;;;;;;;;5031660;28;20208;-28
2022/06/29 04:53:46;;;;;;;4.07;3.57;;;;;;;;;;5032223;28;20199;-31
2022/06/29 04:56:13;;;;;;;3.37;3.17;;;;;;;;;;5032353;28;20227;-30
2022/06/29 04:58:41;;;;;;;4.13;3.30;;;;;;;;;;5027308;28;20260;-29
2022/06/29 05:01:08;;;;;;;3.60;3.10;;;;;;;;;;5036196;28;20241;-29
2022/06/29 05:03:35;;;;;;;3.97;3.67;;;;;;;;;;5030852;28;20207;-30
2022/06/29 05:06:03;;;;;;;3.40;3.20;;;;;;;;;;5036142;28;20231;-30
2022/06/29 05:08:30;;;;;;;3.67;3.37;;;;;;;;;;5035787;28;20217;-29
2022/06/29 05:10:58;;;;;;;5.80;3.30;;;;;;;;;;5035021;28;20219;-28
2022/06/29 05:13:28;;;;;;;3.57;3.27;;;;;;;;;;5029452;28;20212;-29
2022/06/29 05:15:55;;;;;;;5.93;3.30;;;;;;;;;;5036715;28;20209;-30
2022/06/29 05:18:22;;;;;;;5.70;3.50;;;;;;;;;;5030549;28;20295;-29
2022/06/29 05:20:49;;;;;;;3.60;3.40;;;;;;;;;;5035674;28;20227;-33
2022/06/29 05:23:18;;;;;;;3.80;3.53;;;;;;;;;;5035851;28;20214;-28
2022/06/29 05:25:45;;;;;;;4.10;3.43;;;;;;;;;;5035418;28;20242;-31
2022/06/29 05:28:13;;;;;;;3.77;3.47;;;;;;;;;;5027969;28;20203;-30
2022/06/29 05:30:40;;;;;;;5.23;3.37;;;;;;;;;;5028567;28;20203;-29
2022/06/29 05:33:07;;;;;;;3.63;3.33;;;;;;;;;;5028087;28;20203;-30
2022/06/29 05:35:34;;;;;;;4.33;3.53;;;;;;;;;;5032548;28;20207;-28
2022/06/29 05:38:02;;;;;;;4.77;3.40;;;;;;;;;;5035472;28;20239;-27
2022/06/29 05:40:31;;;;;;;5.15;3.80;;;;;;;;;;5030906;28;20270;-31
2022/06/29 05:42:58;;;;;;;3.60;3.30;;;;;;;;;;5027587;28;20218;-27
2022/06/29 05:45:25;;;;;;;3.70;3.40;;;;;;;;;;5034836;28;20223;-28
2022/06/29 05:47:53;;;;;;;4.03;3.73;;;;;;;;;;5029997;28;20240;-30
2022/06/29 05:50:21;;;;;;;3.43;3.23;;;;;;;;;;5030056;28;20209;-32
2022/06/29 05:52:48;;;;;;;3.90;3.60;;;;;;;;;;5034882;28;20214;-31
2022/06/29 05:55:15;;;;;;;4.97;3.80;;;;;;;;;;5035558;28;20206;-28
2022/06/29 05:57:45;;;;;;;4.30;3.90;;;;;;;;;;5027190;28;20228;-28
2022/06/29 06:00:13;;;;;;;4.10;3.80;;;;;;;;;;5035444;28;20237;-28
2022/06/29 06:02:40;;;;;;;5.63;3.83;;;;;;;;;;5033120;28;20282;-30
2022/06/29 06:05:07;;;;;;;4.60;4.20;;;;;;;;;;5031580;28;20210;-29
2022/06/29 06:07:34;;;;;;;4.67;4.00;;;;;;;;;;5032879;28;20220;-29
2022/06/29 06:10:02;;;;;;;4.23;3.87;;;;;;;;;;5033699;28;20303;-31
2022/06/29 06:12:30;;;;;;;4.43;4.10;;;;;;;;;;5029164;28;20203;-29
2022/06/29 06:15:00;;;;;;;5.20;4.80;;;;;;;;;;5024403;28;20208;-27
2022/06/29 06:17:27;;;;;;;5.40;4.53;;;;;;;;;;5032902;28;20239;-29
2022/06/29 06:19:54;;;;;;;6.93;5.10;;;;;;;;;;5033032;28;20206;-29
2022/06/29 06:22:22;;;;;;;5.37;4.43;;;;;;;;;;5034424;28;20212;-29
2022/06/29 06:24:50;;;;;;;6.10;4.40;;;;;;;;;;5034798;28;20238;-29
2022/06/29 06:27:17;;;;;;;4.80;4.40;;;;;;;;;;5026578;28;20228;-29
2022/06/29 06:29:45;;;;;;;5.27;4.80;;;;;;;;;;5032475;28;20291;-29
2022/06/29 06:32:14;;;;;;;5.37;4.57;;;;;;;;;;5034809;28;20257;-30
2022/06/29 06:34:41;;;;;;;5.00;4.47;;;;;;;;;;5025123;28;20202;-30
2022/06/29 06:37:08;;;;;;;9.30;4.80;;;;;;;;;;5034600;28;20228;-29
2022/06/29 06:39:35;;;;;;;4.90;4.47;;;;;;;;;;5034383;28;20214;-32
2022/06/29 06:42:02;;;;;;;5.03;4.60;;;;;;;;;;5024958;28;20218;-27
2022/06/29 06:44:29;;;;;;;5.33;4.40;;;;;;;;;;5030113;28;20204;-32
2022/06/29 06:46:56;;;;;;;4.17;3.63;;;;;;;;;;5033966;28;20220;-32
2022/06/29 06:49:25;;;;;;;5.13;4.63;;;;;;;;;;5024178;28;20204;-29
2022/06/29 06:51:52;;;;;;;6.97;4.70;;;;;;;;;;5033316;28;20208;-30
2022/06/29 06:54:20;;;;;;;5.03;4.57;;;;;;;;;;5034260;28;20216;-26
2022/06/29 06:56:47;;;;;;;6.57;5.13;;;;;;;;;;5029472;28;20597;-29
2022/06/29 06:59:14;;;;;;;6.03;4.73;;;;;;;;;;5033401;28;20215;-29
2022/06/29 07:01:41;;;;;;;4.83;3.90;;;;;;;;;;5032820;28;20228;-32
2022/06/29 07:04:08;;;;;;;5.10;4.70;;;;;;;;;;5023213;28;20208;-32
2022/06/29 07:06:37;;;;;;;5.50;4.80;;;;;;;;;;5033383;28;20223;-30
2022/06/29 07:09:04;;;;;;;5.23;4.30;;;;;;;;;;5033278;28;20204;-28
2022/06/29 07:11:31;;;;;;;5.40;4.53;;;;;;;;;;5031177;28;20265;-27
2022/06/29 07:13:59;;;;;;;5.60;5.13;;;;;;;;;;5023738;28;20244;-28
2022/06/29 07:16:26;;;;;;;4.97;4.57;;;;;;;;;;5033573;28;20242;-30
2022/06/29 07:18:54;;;;;;;6.00;4.60;;;;;;;;;;5025164;28;20223;-34
2022/06/29 07:21:21;;;;;;;4.77;4.33;;;;;;;;;;5032272;28;20236;-27
2022/06/29 07:23:49;;;;;;;6.83;4.40;;;;;;;;;;5033202;28;20205;-30
2022/06/29 07:26:17;;;;;;;5.67;4.80;;;;;;;;;;5024562;28;20232;-28
2022/06/29 07:28:44;;;;;;;5.47;4.50;;;;;;;;;;5022790;28;20275;-29
2022/06/29 07:31:11;;;;;;;5.73;4.30;;;;;;;;;;5032676;28;20212;-29
2022/06/29 07:33:38;;;;;;;5.57;5.10;;;;;;;;;;5023427;28;20278;-32
2022/06/29 07:36:05;;;;;;;4.43;3.97;;;;;;;;;;5032743;28;20514;-27
2022/06/29 07:38:33;;;;;;;4.27;3.93;;;;;;;;;;5033072;28;20201;-29
2022/06/29 07:41:01;;;;;;;4.70;4.33;;;;;;;;;;5031930;28;20225;-27
2022/06/29 07:43:28;;;;;;;6.20;4.60;;;;;;;;;;5019529;28;20233;-29
2022/06/29 07:45:57;;;;;;;6.87;4.57;;;;;;;;;;5032477;28;20205;-31
2022/06/29 07:48:24;;;;;;;4.87;4.47;;;;;;;;;;5027204;28;20215;-29
2022/06/29 07:50:51;;;;;;;6.00;4.60;;;;;;;;;;5032328;28;20298;-31
2022/06/29 07:53:19;;;;;;;7.40;4.87;;;;;;;;;;5032492;28;20256;-31
2022/06/29 07:55:46;;;;;;;6.23;4.57;;;;;;;;;;5032339;28;20230;-30
2022/06/29 07:58:15;;;;;;;6.87;5.10;;;;;;;;;;5022237;28;20217;-29
2022/06/29 08:03:10;;;;;;;7.50;4.05;;;;;;;;;;5003980;28;20227;-36
2022/06/29 08:05:37;;;;;;;5.45;4.28;;;;;;;;;;5011683;28;20203;-36
2022/06/29 08:08:06;;;;;;;11.63;4.93;;;;;;;;;;5012872;28;20233;-38
2022/06/29 08:10:33;;;;;;;4.78;4.28;;;;;;;;;;5013457;28;20250;-33
2022/06/29 08:13:01;;;;;;;8.23;5.07;;;;;;;;;;5011315;28;20199;-40
2022/06/29 08:15:29;;;;;;;5.13;4.40;;;;;;;;;;5012708;28;20205;-31
2022/06/29 08:17:57;;;;;;;5.18;4.38;;;;;;;;;;5000060;28;20223;-33
2022/06/29 08:20:25;;;;;;;6.07;4.60;;;;;;;;;;5013170;28;20200;-33
2022/06/29 08:22:52;;;;;;;7.97;4.43;;;;;;;;;;5013199;28;20218;-32
2022/06/29 08:25:19;;;;;;;5.13;4.63;;;;;;;;;;5013415;28;20207;-38
2022/06/29 08:27:52;;;;;;;4.00;3.67;;;;;;;;;;5009524;28;20231;-36
2022/06/29 08:30:19;;;;;;;4.95;4.32;;;;;;;;;;5007368;28;20211;-36
2022/06/29 08:32:47;;;;;;;4.80;4.40;;;;;;;;;;5009809;28;20204;-37
2022/06/29 08:35:15;;;;;;;4.78;4.32;;;;;;;;;;5007777;28;20295;-34
2022/06/29 08:37:42;;;;;;;5.28;4.43;;;;;;;;;;5012515;28;20311;-38
2022/06/29 08:40:10;;;;;;;4.68;4.03;;;;;;;;;;5013001;28;20290;-33
2022/06/29 08:42:38;;;;;;;5.45;4.18;;;;;;;;;;5003516;28;20298;-39
2022/06/29 08:45:06;;;;;;;5.47;4.30;;;;;;;;;;5010669;28;20294;-36
2022/06/29 08:47:33;;;;;;;4.93;3.97;;;;;;;;;;5010441;28;20258;-37
2022/06/29 08:50:03;;;;;;;4.82;4.35;;;;;;;;;;5008977;28;20231;-32
2022/06/29 08:52:30;;;;;;;4.38;3.97;;;;;;;;;;5013100;28;20187;-39
2022/06/29 08:54:58;;;;;;;4.80;4.30;;;;;;;;;;5012588;28;20214;-39
2022/06/29 08:57:25;;;;;;;6.00;4.60;;;;;;;;;;5007164;28;20311;-36
2022/06/29 08:59:53;;;;;;;4.10;3.80;;;;;;;;;;5012123;28;20211;-40
2022/06/29 09:02:21;;;;;;;6.75;4.22;;;;;;;;;;5012916;28;20240;-40
2022/06/29 09:04:49;;;;;;;4.63;4.22;;;;;;;;;;5004728;28;20200;-31
2022/06/29 09:07:17;;;;;;;6.38;4.03;;;;;;;;;;5013012;28;20291;-32
2022/06/29 09:10:06;;;;;;;3.97;3.67;;;;;;;;;;5011850;28;20219;-36
2022/06/29 09:12:33;;;;;;;4.10;3.78;;;;;;;;;;5003094;28;20209;-39
2022/06/29 09:15:01;;;;;;;4.35;3.95;;;;;;;;;;5012312;28;20196;-42
2022/06/29 09:17:28;;;;;;;4.00;3.70;;;;;;;;;;5011092;28;20232;-35
2022/06/29 09:19:56;;;;;;;4.63;4.22;;;;;;;;;;5011357;28;20205;-35
2022/06/29 09:22:25;;;;;;;4.07;3.78;;;;;;;;;;5012612;28;20227;-37
2022/06/29 09:24:52;;;;;;;7.32;4.00;;;;;;;;;;5012650;28;20212;-34
2022/06/29 09:27:20;;;;;;;4.40;3.90;;;;;;;;;;5005182;28;20224;-37
2022/06/29 09:29:47;;;;;;;3.55;3.25;;;;;;;;;;5011879;28;20205;-42
2022/06/29 09:32:15;;;;;;;4.90;3.65;;;;;;;;;;5012652;28;20205;-39
2022/06/29 09:34:43;;;;;;;3.42;3.13;;;;;;;;;;5006018;28;20213;-37
2022/06/29 09:37:12;;;;;;;4.43;3.75;;;;;;;;;;5012516;28;20220;-38
2022/06/29 09:39:43;;;;;;;2.97;2.78;;;;;;;;;;5012661;28;20207;-33
2022/06/29 09:42:10;;;;;;;3.63;3.33;;;;;;;;;;5010087;28;20766;-40
2022/06/29 09:44:38;;;;;;;2.92;2.72;;;;;;;;;;5008797;28;20205;-36
2022/06/29 09:47:06;;;;;;;3.63;3.33;;;;;;;;;;5015679;28;20228;-38
2022/06/29 09:49:34;;;;;;;3.50;3.20;;;;;;;;;;5012992;28;20206;-36
2022/06/29 09:52:02;;;;;;;4.07;3.42;;;;;;;;;;5015835;28;20208;-34
2022/06/29 09:54:32;;;;;;;3.95;3.55;;;;;;;;;;5016047;28;20215;-37
2022/06/29 09:57:01;;;;;;;3.38;3.17;;;;;;;;;;5007233;28;20228;-36
2022/06/29 10:05:04;;;;;;;4.07;3.15;;;;;;;;;;5007267;28;20195;-34
2022/06/29 10:07:31;;;;;;;2.97;2.72;;;;;;;;;;5015687;28;20225;-37
2022/06/29 10:09:59;;;;;;;4.53;2.95;;;;;;;;;;5014568;28;20291;-37
2022/06/29 10:15:25;;;;;;;2.53;2.33;;;;;;;;;;5002838;28;20216;-36
2022/06/29 10:17:55;;;;;;;3.53;2.65;;;;;;;;;;5010676;28;20236;-40
2022/06/29 10:20:32;;;;;;;4.50;2.75;;;;;;;;;;5010055;28;20206;-36
2022/06/29 10:22:59;;;;;;;5.28;3.08;;;;;;;;;;5015610;28;20216;-38
2022/06/29 10:25:28;;;;;;;3.80;2.72;;;;;;;;;;5014656;28;20200;-39
2022/06/29 10:28:16;;;;;;;2.45;2.25;;;;;;;;;;5011076;28;20241;-40
2022/06/29 10:30:44;;;;;;;3.53;3.00;;;;;;;;;;5012894;28;20298;-34
2022/06/29 10:33:30;;;;;;;2.95;2.45;;;;;;;;;;5010101;28;20250;-35
2022/06/29 10:35:58;;;;;;;4.85;2.67;;;;;;;;;;5007129;28;20209;-38
2022/06/29 10:38:25;;;;;;;3.50;3.10;;;;;;;;;;5014747;28;20252;-37
2022/06/29 10:41:07;;;;;;;3.33;3.03;;;;;;;;;;5012172;28;20259;-39
2022/06/29 10:43:37;;;;;;;3.15;2.83;;;;;;;;;;5004045;28;20216;-36
2022/06/29 10:46:04;;;;;;;3.88;3.00;;;;;;;;;;5014375;28;20219;-36
2022/06/29 10:48:32;;;;;;;3.53;3.22;;;;;;;;;;5009228;28;20211;-35
2022/06/29 10:50:59;;;;;;;6.47;3.38;;;;;;;;;;5006906;28;20211;-38
2022/06/29 10:53:26;;;;;;;3.35;3.05;;;;;;;;;;5014605;28;20199;-41
2022/06/29 10:55:57;;;;;;;3.50;3.20;;;;;;;;;;5008169;28;20215;-38
2022/06/29 10:58:25;;;;;;;3.35;2.80;;;;;;;;;;5007575;28;20200;-36
2022/06/29 11:00:54;;;;;;;3.60;2.50;;;;;;;;;;5014169;28;20205;-35
2022/06/29 11:03:23;;;;;;;2.78;2.47;;;;;;;;;;5011213;28;20234;-37
2022/06/29 11:14:06;;;;;;;4.00;2.67;;;;;;;;;;5004589;28;20233;-32
2022/06/29 11:16:36;;;;;;;4.07;2.85;;;;;;;;;;5013965;28;20271;-35
2022/06/29 11:19:05;;;;;;;3.95;2.72;;;;;;;;;;5006620;28;20200;-40
2022/06/29 11:21:33;;;;;;;3.65;2.58;;;;;;;;;;5011746;28;20199;-35
2022/06/29 11:24:04;;;;;;;3.13;2.42;;;;;;;;;;5012004;28;20231;-37
2022/06/29 11:26:32;;;;;;;3.38;2.75;;;;;;;;;;5010181;28;20229;-39
2022/06/29 11:28:59;;;;;;;3.28;2.67;;;;;;;;;;5010116;28;20304;-34
2022/06/29 11:31:27;;;;;;;4.20;2.78;;;;;;;;;;5013959;28;20288;-36
2022/06/29 11:33:56;;;;;;;2.78;2.63;;;;;;;;;;5011210;28;20199;-35
2022/06/29 11:36:24;;;;;;;3.03;2.72;;;;;;;;;;5013300;28;20233;-39
2022/06/29 11:38:53;;;;;;;4.57;2.90;;;;;;;;;;5013386;28;20236;-40
2022/06/29 11:41:21;;;;;;;3.30;3.00;;;;;;;;;;5013616;28;20210;-32
2022/06/29 11:43:58;;;;;;;5.03;3.13;;;;;;;;;;5004753;28;20252;-31
2022/06/29 11:46:27;;;;;;;4.25;2.92;;;;;;;;;;5013634;28;20228;-35
2022/06/29 11:51:51;;;;;;;3.40;3.10;;;;;;;;;;5004854;28;20213;-38
2022/06/29 11:54:18;;;;;;;6.22;3.40;;;;;;;;;;5013842;28;20208;-35
2022/06/29 11:56:46;;;;;;;3.53;2.95;;;;;;;;;;5006282;28;20224;-36
2022/06/29 11:59:16;;;;;;;5.85;3.20;;;;;;;;;;5007425;28;20257;-34
2022/06/29 12:01:52;;;;;;;4.28;3.22;;;;;;;;;;5003676;28;20212;-33
2022/06/29 12:04:29;;;;;;;4.40;3.17;;;;;;;;;;5006828;28;20269;-32
2022/06/29 12:07:06;;;;;;;3.45;3.03;;;;;;;;;;5013135;28;20306;-35
2022/06/29 12:09:33;;;;;;;4.70;2.95;;;;;;;;;;5013715;28;20364;-37
2022/06/29 12:12:00;;;;;;;5.53;3.47;;;;;;;;;;5007585;28;20207;-39
2022/06/29 12:14:27;;;;;;;4.55;2.80;;;;;;;;;;5012743;28;20276;-35
2022/06/29 12:16:55;;;;;;;3.00;2.75;;;;;;;;;;5013455;28;20229;-39
2022/06/29 12:19:22;;;;;;;5.20;3.47;;;;;;;;;;5007903;28;20209;-33
2022/06/29 12:21:51;;;;;;;4.30;2.92;;;;;;;;;;5012726;28;20204;-34
2022/06/29 12:24:20;;;;;;;4.65;3.17;;;;;;;;;;5012940;28;20229;-41
2022/06/29 12:26:47;;;;;;;4.20;3.13;;;;;;;;;;5012988;28;20236;-31
2022/06/29 12:29:14;;;;;;;3.33;2.95;;;;;;;;;;5002770;28;20212;-36
2022/06/29 12:31:42;;;;;;;3.47;3.22;;;;;;;;;;5010846;28;20252;-37
2022/06/29 12:34:09;;;;;;;3.83;3.38;;;;;;;;;;5004385;28;20209;-33
2022/06/29 12:36:36;;;;;;;3.38;3.00;;;;;;;;;;5012515;28;20223;-32
2022/06/29 12:39:05;;;;;;;3.95;3.53;;;;;;;;;;5013257;28;20212;-35
2022/06/29 12:41:32;;;;;;;5.25;3.30;;;;;;;;;;5013251;28;20218;-32
2022/06/29 12:44:02;;;;;;;3.47;3.17;;;;;;;;;;5007276;28;20224;-40
2022/06/29 12:46:29;;;;;;;3.88;2.88;;;;;;;;;;5008725;28;20220;-39
2022/06/29 12:48:56;;;;;;;3.30;3.00;;;;;;;;;;5008692;28;20320;-33
2022/06/29 12:51:24;;;;;;;4.75;3.20;;;;;;;;;;5012171;28;20206;-33
2022/06/29 12:53:52;;;;;;;4.00;3.70;;;;;;;;;;5012800;28;20208;-34
2022/06/29 12:56:20;;;;;;;4.65;3.70;;;;;;;;;;5008906;28;20229;-33
2022/06/29 12:58:50;;;;;;;5.43;3.05;;;;;;;;;;4998558;28;20213;-40
2022/06/29 13:01:17;;;;;;;4.70;3.03;;;;;;;;;;5007044;28;20241;-39
2022/06/29 13:03:45;;;;;;;4.30;3.08;;;;;;;;;;5006866;28;20316;-33
2022/06/29 13:06:12;;;;;;;2.97;2.72;;;;;;;;;;5012576;28;20251;-40
2022/06/29 13:08:39;;;;;;;4.38;3.03;;;;;;;;;;5012477;28;20208;-33
2022/06/29 13:11:06;;;;;;;3.42;2.78;;;;;;;;;;5011156;28;20205;-34
2022/06/29 13:13:35;;;;;;;3.58;3.10;;;;;;;;;;4994622;28;20199;-38
2022/06/29 13:16:02;;;;;;;5.10;2.90;;;;;;;;;;5010571;28;20272;-36
2022/06/29 13:18:29;;;;;;;4.95;2.95;;;;;;;;;;5009202;28;20207;-39
2022/06/29 13:20:57;;;;;;;3.88;2.95;;;;;;;;;;5008294;28;20264;-35
2022/06/29 13:23:24;;;;;;;6.57;3.10;;;;;;;;;;5015685;28;20225;-40
2022/06/29 13:25:51;;;;;;;3.80;2.75;;;;;;;;;;5011252;28;20214;-34
2022/06/29 13:28:18;;;;;;;5.43;2.75;;;;;;;;;;5011042;28;20204;-43
2022/06/29 13:30:47;;;;;;;4.05;2.40;;;;;;;;;;5016264;28;20219;-37
2022/06/29 13:33:14;;;;;;;3.53;2.50;;;;;;;;;;5013092;28;20218;-39
2022/06/29 13:35:41;;;;;;;7.15;2.70;;;;;;;;;;5015540;28;20213;-36
2022/06/29 13:38:13;;;;;;;4.47;2.60;;;;;;;;;;5015907;28;20220;-33
2022/06/29 13:40:40;;;;;;;3.50;2.70;;;;;;;;;;5014983;28;20244;-39
2022/06/29 13:43:07;;;;;;;3.22;2.65;;;;;;;;;;4999440;28;20207;-36
2022/06/29 13:45:34;;;;;;;3.25;2.70;;;;;;;;;;5012850;28;20204;-39
2022/06/29 13:48:03;;;;;;;3.50;3.05;;;;;;;;;;5011998;28;20238;-39
2022/06/29 13:50:32;;;;;;;3.97;2.70;;;;;;;;;;5016071;28;20297;-35
2022/06/29 13:52:59;;;;;;;5.72;3.15;;;;;;;;;;5008484;28;20291;-39
2022/06/29 13:55:26;;;;;;;7.00;2.95;;;;;;;;;;5016189;28;20226;-36
2022/06/29 13:57:53;;;;;;;4.18;3.30;;;;;;;;;;5006305;28;20241;-38
2022/06/29 14:00:21;;;;;;;5.13;3.22;;;;;;;;;;5015457;28;20202;-35
2022/06/29 14:02:48;;;;;;;5.65;3.05;;;;;;;;;;5288039;22;20231;-31
2022/06/29 14:05:17;;;;;;;5.43;3.25;;;;;;;;;;5033998;28;20225;-34
2022/06/29 14:07:44;;;;;;;3.55;3.00;;;;;;;;;;5034657;28;20231;-31
2022/06/29 14:10:11;;;;;;;3.05;2.75;;;;;;;;;;5032479;28;20212;-32
2022/06/29 14:12:39;;;;;;;4.75;3.33;;;;;;;;;;5024631;28;20217;-32
2022/06/29 14:15:06;;;;;;;5.35;3.20;;;;;;;;;;5034418;28;20200;-33
2022/06/29 14:17:33;;;;;;;3.78;3.40;;;;;;;;;;5032926;28;20235;-32
2022/06/29 14:20:01;;;;;;;3.08;2.88;;;;;;;;;;5027260;28;20275;-30
2022/06/29 14:22:29;;;;;;;4.90;3.33;;;;;;;;;;5034406;28;20206;-33
2022/06/29 14:24:56;;;;;;;4.63;3.20;;;;;;;;;;5034141;28;20230;-32
2022/06/29 14:27:23;;;;;;;4.60;3.22;;;;;;;;;;5031016;28;20229;-32
2022/06/29 14:29:50;;;;;;;5.80;3.03;;;;;;;;;;5023462;28;20223;-31
2022/06/29 14:32:18;;;;;;;3.53;3.10;;;;;;;;;;5033610;28;20208;-35
2022/06/29 14:34:45;;;;;;;5.40;3.35;;;;;;;;;;5025570;28;20213;-35
2022/06/29 14:37:12;;;;;;;4.63;3.08;;;;;;;;;;5034530;28;20522;-33
2022/06/29 14:39:41;;;;;;;3.67;2.75;;;;;;;;;;5034993;28;20239;-34
2022/06/29 14:42:08;;;;;;;5.03;3.20;;;;;;;;;;5027592;28;20216;-31
2022/06/29 14:44:35;;;;;;;4.53;3.15;;;;;;;;;;5031745;28;20221;-32
2022/06/29 14:47:02;;;;;;;7.22;3.38;;;;;;;;;;5035314;28;20228;-35
2022/06/29 14:49:29;;;;;;;5.22;3.22;;;;;;;;;;5026718;28;20206;-30
2022/06/29 14:51:56;;;;;;;6.25;3.80;;;;;;;;;;5035569;28;20204;-30
2022/06/29 14:54:23;;;;;;;5.40;2.90;;;;;;;;;;5035670;28;20567;-36
2022/06/29 14:56:52;;;;;;;3.65;3.10;;;;;;;;;;5035711;28;20232;-33
2022/06/29 14:59:19;;;;;;;7.70;3.55;;;;;;;;;;5019841;28;20216;-33
2022/06/29 15:01:46;;;;;;;4.50;3.60;;;;;;;;;;5032732;28;20244;-30
2022/06/29 15:04:15;;;;;;;4.30;3.28;;;;;;;;;;5031682;28;20295;-29
2022/06/29 15:06:43;;;;;;;4.85;3.22;;;;;;;;;;5034337;28;20225;-31
2022/06/29 15:09:10;;;;;;;4.68;3.28;;;;;;;;;;5034532;28;20315;-35
2022/06/29 15:11:37;;;;;;;5.45;3.15;;;;;;;;;;5034032;28;20238;-30
2022/06/29 15:14:05;;;;;;;3.28;2.75;;;;;;;;;;5021072;28;20207;-29